Time;durP1;ratioP1;P1;durP2;ratioP2;P2;SDS_P1;SDS_P2;PMS_P1;PMS_P2;Temp;Humidity;BMP_temperature;BMP_pressure;BME280_temperature;BME280_humidity;BME280_pressure;Samples;Min_cycle;Max_cycle;Signal;HPM_P1;HPM_P2
2022/09/10 00:01:14;;;;;;;;;;;;;;;22.27;66.95;99557.00;4414605;32;33149;-81
2022/09/10 00:03:42;;;;;;;;;;;;;;;22.41;66.41;99562.75;4385646;32;32879;-80
2022/09/10 00:06:09;;;;;;;;;;;;;;;22.58;65.45;99546.81;4377109;32;33921;-81
2022/09/10 00:08:38;;;;;;;;;;;;;;;22.46;65.94;99554.25;4392842;32;33972;-80
2022/09/10 00:11:07;;;;;;;;;;;;;;;22.56;65.49;99546.97;4365680;32;32618;-81
2022/09/10 00:13:36;;;;;;;;;;;;;;;22.71;65.00;99545.44;4382799;32;34942;-81
2022/09/10 00:16:04;;;;;;;;;;;;;;;22.56;65.61;99544.28;4378269;32;33665;-81
2022/09/10 00:18:33;;;;;;;;;;;;;;;22.22;66.82;99549.38;4394848;32;34073;-80
2022/09/10 00:21:03;;;;;;;;;;;;;;;22.16;67.29;99550.81;4401592;32;33390;-81
2022/09/10 00:23:31;;;;;;;;;;;;;;;22.20;67.04;99544.13;4390844;32;34252;-81
2022/09/10 00:25:58;;;;;;;;;;;;;;;22.15;67.42;99532.97;4398157;32;34753;-82
2022/09/10 00:28:26;;;;;;;;;;;;;;;22.24;67.20;99537.47;4364870;32;34049;-82
2022/09/10 00:30:53;;;;;;;;;;;;;;;22.24;67.13;99536.63;4398814;32;34100;-82
2022/09/10 00:33:21;;;;;;;;;;;;;;;22.15;67.56;99530.28;4385980;32;34764;-82
2022/09/10 00:35:49;;;;;;;;;;;;;;;22.25;67.12;99524.88;4398394;32;34166;-82
2022/09/10 00:38:17;;;;;;;;;;;;;;;22.29;67.00;99522.72;4385383;32;33899;-82
2022/09/10 00:40:45;;;;;;;;;;;;;;;22.23;67.11;99514.28;4400851;32;33048;-82
2022/09/10 00:43:13;;;;;;;;;;;;;;;22.16;67.29;99528.44;4374537;32;794739;-82
2022/09/10 00:45:42;;;;;;;;;;;;;;;22.13;67.31;99532.28;4381640;32;32784;-82
2022/09/10 00:48:13;;;;;;;;;;;;;;;22.14;67.29;99528.59;4398543;32;34119;-82
2022/09/10 00:50:41;;;;;;;;;;;;;;;22.24;66.88;99525.88;4393444;32;31646;-82
2022/09/10 00:53:09;;;;;;;;;;;;;;;22.24;66.82;99524.03;4389558;32;33306;-82
2022/09/10 00:55:37;;;;;;;;;;;;;;;21.94;67.82;99524.25;4390821;32;34213;-82
2022/09/10 00:58:05;;;;;;;;;;;;;;;22.00;67.47;99518.28;4387087;32;35063;-83
2022/09/10 01:00:33;;;;;;;;;;;;;;;22.19;66.88;99523.63;4396858;32;33065;-83
2022/09/10 01:03:00;;;;;;;;;;;;;;;22.13;67.01;99524.22;4382845;32;33998;-83
2022/09/10 01:05:28;;;;;;;;;;;;;;;22.21;66.63;99516.25;4383415;32;34259;-83
2022/09/10 01:07:56;;;;;;;;;;;;;;;22.07;66.80;99513.16;4396583;32;33882;-83
2022/09/10 01:10:26;;;;;;;;;;;;;;;22.17;66.36;99514.88;4407807;32;33128;-83
2022/09/10 01:13:00;;;;;;;;;;;;;;;22.07;66.56;99511.31;4407927;32;34486;-83
2022/09/10 01:15:39;;;;;;;;;;;;;;;22.18;66.26;99513.87;4387150;32;32867;-83
2022/09/10 01:18:07;;;;;;;;;;;;;;;22.22;65.98;99515.28;4381057;32;33297;-83
2022/09/10 01:20:56;;;;;;;;;;;;;;;22.17;66.05;99511.31;4402260;32;33317;-82
2022/09/10 01:23:42;;;;;;;;;;;;;;;22.17;66.01;99504.13;4403696;32;33151;-82
2022/09/10 01:26:19;;;;;;;;;;;;;;;22.15;65.89;99500.72;4393530;32;34509;-82
2022/09/10 01:28:59;;;;;;;;;;;;;;;21.98;66.13;99496.94;4393077;32;33293;-82
2022/09/10 01:31:57;;;;;;;;;;;;;;;22.06;65.67;99482.75;4387447;32;33402;-82
2022/09/10 01:34:31;;;;;;;;;;;;;;;21.91;65.92;99477.00;4385146;32;34241;-82
2022/09/10 01:37:02;;;;;;;;;;;;;;;21.99;65.62;99471.75;4369863;32;32966;-81
2022/09/10 01:39:30;;;;;;;;;;;;;;;21.89;65.67;99467.41;4395812;32;32748;-81
2022/09/10 01:41:58;;;;;;;;;;;;;;;21.91;65.56;99462.72;4394721;32;33483;-82
2022/09/10 01:44:39;;;;;;;;;;;;;;;21.83;65.34;99468.81;4387016;32;33280;-81
2022/09/10 01:47:12;;;;;;;;;;;;;;;21.87;65.03;99454.09;4382625;32;33853;-81
2022/09/10 01:49:46;;;;;;;;;;;;;;;21.77;65.11;99444.37;4388979;32;33991;-82
2022/09/10 01:52:24;;;;;;;;;;;;;;;21.75;64.94;99459.81;4395769;32;32375;-82
2022/09/10 01:55:07;;;;;;;;;;;;;;;21.62;65.14;99471.72;4384280;32;34999;-83
2022/09/10 01:57:43;;;;;;;;;;;;;;;21.35;65.87;99487.75;4382678;32;34023;-83
2022/09/10 02:00:12;;;;;;;;;;;;;;;21.62;64.90;99455.59;4395722;32;34139;-83
2022/09/10 02:02:44;;;;;;;;;;;;;;;21.62;64.75;99444.00;4392705;32;32555;-83
2022/09/10 02:05:12;;;;;;;;;;;;;;;21.45;65.50;99424.09;4400832;32;33320;-83
2022/09/10 02:07:41;;;;;;;;;;;;;;;21.38;65.52;99425.69;4381937;32;33412;-83
2022/09/10 02:10:11;;;;;;;;;;;;;;;21.16;66.20;99438.41;4398214;32;33315;-82
2022/09/10 02:12:39;;;;;;;;;;;;;;;21.09;66.27;99445.34;4396968;32;32704;-82
2022/09/10 02:15:11;;;;;;;;;;;;;;;21.17;65.86;99450.88;4395655;32;33879;-82
2022/09/10 02:17:41;;;;;;;;;;;;;;;21.09;66.20;99453.41;4385866;32;33926;-82
2022/09/10 02:20:10;;;;;;;;;;;;;;;21.10;65.36;99459.63;4393201;32;34126;-82
2022/09/10 02:22:38;;;;;;;;;;;;;;;21.10;65.19;99457.78;4398964;32;34016;-83
2022/09/10 02:25:06;;;;;;;;;;;;;;;21.15;65.17;99463.56;4398516;32;33759;-82
2022/09/10 02:27:33;;;;;;;;;;;;;;;21.10;64.91;99455.09;4400572;32;34288;-84
2022/09/10 02:30:01;;;;;;;;;;;;;;;20.89;64.61;99454.41;4385116;32;33226;-83
2022/09/10 02:32:28;;;;;;;;;;;;;;;21.12;63.30;99441.53;4386825;32;32483;-84
2022/09/10 02:34:56;;;;;;;;;;;;;;;20.74;64.10;99448.59;4386753;32;34188;-81
2022/09/10 02:37:26;;;;;;;;;;;;;;;20.64;64.39;99440.53;4398269;32;34260;-82
2022/09/10 02:39:54;;;;;;;;;;;;;;;20.75;63.86;99439.59;4391567;32;34770;-82
2022/09/10 02:42:24;;;;;;;;;;;;;;;20.95;63.09;99440.41;4384045;32;32219;-81
2022/09/10 02:44:52;;;;;;;;;;;;;;;21.11;62.51;99434.47;4401457;32;33921;-81
2022/09/10 02:47:19;;;;;;;;;;;;;;;20.88;63.00;99433.91;4402747;32;34263;-84
2022/09/10 02:49:47;;;;;;;;;;;;;;;20.73;63.20;99443.38;4405946;32;33409;-84
2022/09/10 02:52:14;;;;;;;;;;;;;;;20.25;64.58;99444.13;4389422;32;31839;-83
2022/09/10 02:54:41;;;;;;;;;;;;;;;20.58;63.49;99443.78;4402734;32;34838;-82
2022/09/10 02:57:11;;;;;;;;;;;;;;;20.29;64.57;99448.22;4360065;32;32677;-81
2022/09/10 02:59:38;;;;;;;;;;;;;;;20.29;63.73;99453.59;4401206;32;33893;-81
2022/09/10 03:02:06;;;;;;;;;;;;;;;20.15;63.71;99447.63;4396195;32;33239;-83
2022/09/10 03:04:34;;;;;;;;;;;;;;;20.25;63.75;99444.13;4385918;32;32981;-81
2022/09/10 03:07:02;;;;;;;;;;;;;;;20.37;62.75;99456.44;4399252;32;34665;-81
2022/09/10 03:09:29;;;;;;;;;;;;;;;20.43;62.47;99453.19;4389945;32;33459;-81
2022/09/10 03:11:57;;;;;;;;;;;;;;;20.43;62.13;99439.78;4388028;32;33372;-81
2022/09/10 03:14:24;;;;;;;;;;;;;;;20.38;62.45;99442.03;4387051;32;32653;-82
2022/09/10 03:16:52;;;;;;;;;;;;;;;20.35;62.69;99444.97;4398898;32;34012;-82
2022/09/10 03:19:20;;;;;;;;;;;;;;;20.48;62.21;99442.09;4375781;32;33154;-84
2022/09/10 03:21:47;;;;;;;;;;;;;;;20.04;63.63;99445.06;4399801;32;33820;-84
2022/09/10 03:24:15;;;;;;;;;;;;;;;20.17;63.99;99442.09;4389749;32;33908;-82
2022/09/10 03:26:43;;;;;;;;;;;;;;;20.36;63.13;99442.16;4406362;32;34782;-82
2022/09/10 03:29:14;;;;;;;;;;;;;;;20.29;62.89;99440.19;4387256;32;33553;-84
2022/09/10 03:31:43;;;;;;;;;;;;;;;20.40;62.81;99438.22;4403154;32;33265;-84
2022/09/10 03:34:11;;;;;;;;;;;;;;;20.41;62.70;99441.75;4378773;32;33942;-84
2022/09/10 03:36:39;;;;;;;;;;;;;;;20.28;63.34;99438.50;4375106;32;34424;-82
2022/09/10 03:39:08;;;;;;;;;;;;;;;20.50;62.34;99438.25;4361155;32;33040;-84
2022/09/10 03:41:36;;;;;;;;;;;;;;;20.38;62.68;99434.00;4381578;32;32484;-85
2022/09/10 03:44:04;;;;;;;;;;;;;;;20.37;62.68;99441.19;4401192;32;33696;-84
2022/09/10 03:46:31;;;;;;;;;;;;;;;20.50;62.00;99440.94;4381598;32;33777;-85
2022/09/10 03:49:01;;;;;;;;;;;;;;;20.18;63.20;99436.63;4404875;32;34978;-83
2022/09/10 03:51:29;;;;;;;;;;;;;;;20.31;63.05;99438.19;4401505;32;33089;-83
2022/09/10 03:54:01;;;;;;;;;;;;;;;20.39;62.59;99435.69;4400124;32;32926;-83
2022/09/10 03:56:29;;;;;;;;;;;;;;;20.28;63.08;99435.81;4406452;32;35030;-84
2022/09/10 03:58:56;;;;;;;;;;;;;;;20.33;62.21;99433.56;4363947;32;32758;-83
2022/09/10 04:01:25;;;;;;;;;;;;;;;20.46;61.71;99434.12;4399665;32;33288;-82
2022/09/10 04:03:54;;;;;;;;;;;;;;;20.39;61.46;99430.31;4374580;32;33761;-82
2022/09/10 04:06:23;;;;;;;;;;;;;;;20.36;61.58;99428.75;4399494;32;33630;-83
2022/09/10 04:08:53;;;;;;;;;;;;;;;19.98;63.07;99434.84;4399150;32;33787;-84
2022/09/10 04:11:26;;;;;;;;;;;;;;;20.05;62.92;99432.50;4392338;32;32373;-84
2022/09/10 04:13:54;;;;;;;;;;;;;;;20.25;61.61;99430.72;4397995;32;34033;-82
2022/09/10 04:16:22;;;;;;;;;;;;;;;20.34;61.19;99441.47;4387220;32;35207;-82
2022/09/10 04:18:49;;;;;;;;;;;;;;;20.09;61.22;99447.31;4387937;32;33859;-83
2022/09/10 04:21:17;;;;;;;;;;;;;;;20.33;60.66;99449.66;4388142;32;34138;-82
2022/09/10 04:23:46;;;;;;;;;;;;;;;20.40;60.16;99448.94;4401282;32;35313;-84
2022/09/10 04:26:14;;;;;;;;;;;;;;;20.41;60.15;99457.84;4398525;32;33971;-83
2022/09/10 04:28:42;;;;;;;;;;;;;;;19.98;61.29;99461.66;4367523;32;33627;-83
2022/09/10 04:31:09;;;;;;;;;;;;;;;20.32;60.18;99453.28;4370958;32;32501;-83
2022/09/10 04:33:37;;;;;;;;;;;;;;;20.37;60.11;99461.81;4384304;32;34696;-83
2022/09/10 04:36:05;;;;;;;;;;;;;;;20.28;60.53;99466.16;4379647;32;34339;-83
2022/09/10 04:38:38;;;;;;;;;;;;;;;20.22;60.38;99464.00;4400867;32;34395;-83
2022/09/10 04:41:06;;;;;;;;;;;;;;;20.36;60.12;99454.72;4398272;32;32605;-83
2022/09/10 04:43:35;;;;;;;;;;;;;;;20.20;60.88;99452.56;4385352;32;33779;-83
2022/09/10 04:46:02;;;;;;;;;;;;;;;20.26;60.54;99443.13;4386600;32;34244;-83
2022/09/10 04:48:31;;;;;;;;;;;;;;;19.98;61.73;99450.94;4397981;32;33304;-82
2022/09/10 04:50:58;;;;;;;;;;;;;;;20.13;60.79;99454.97;4377874;32;33846;-82
2022/09/10 04:53:42;;;;;;;;;;;;;;;20.13;60.82;99452.28;4391543;32;32862;-82
2022/09/10 04:56:10;;;;;;;;;;;;;;;19.94;61.43;99447.69;4407250;32;35140;-82
2022/09/10 04:58:39;;;;;;;;;;;;;;;19.98;61.40;99444.72;4385263;32;34045;-82
2022/09/10 05:01:07;;;;;;;;;;;;;;;20.07;61.16;99449.28;4387104;32;32713;-83
2022/09/10 05:03:35;;;;;;;;;;;;;;;20.09;60.89;99447.31;4394533;32;33854;-82
2022/09/10 05:06:05;;;;;;;;;;;;;;;20.06;61.62;99442.22;4386057;32;34754;-82
2022/09/10 05:08:32;;;;;;;;;;;;;;;20.33;60.36;99450.50;4384641;32;33360;-82
2022/09/10 05:11:01;;;;;;;;;;;;;;;20.20;61.16;99455.25;4402229;32;33323;-82
2022/09/10 05:13:30;;;;;;;;;;;;;;;20.14;61.55;99453.13;4404232;32;33112;-82
2022/09/10 05:15:58;;;;;;;;;;;;;;;20.18;61.06;99452.72;4394145;32;32754;-84
2022/09/10 05:18:26;;;;;;;;;;;;;;;20.03;61.15;99455.88;4399474;32;34601;-83
2022/09/10 05:20:53;;;;;;;;;;;;;;;20.30;60.53;99458.81;4400316;32;32929;-83
2022/09/10 05:23:20;;;;;;;;;;;;;;;20.59;58.86;99458.03;4386355;32;33345;-84
2022/09/10 05:25:49;;;;;;;;;;;;;;;20.36;60.05;99454.72;4386112;32;33807;-84
2022/09/10 05:28:17;;;;;;;;;;;;;;;20.06;60.74;99464.50;4399359;32;34822;-82
2022/09/10 05:30:44;;;;;;;;;;;;;;;20.20;60.56;99464.12;4386661;32;33359;-82
2022/09/10 05:33:19;;;;;;;;;;;;;;;20.32;60.02;99455.97;4384262;32;32594;-81
2022/09/10 05:35:52;;;;;;;;;;;;;;;20.46;59.54;99456.47;4395834;32;34587;-82
2022/09/10 05:38:20;;;;;;;;;;;;;;;20.30;61.02;99460.63;4384829;32;32959;-82
2022/09/10 05:40:47;;;;;;;;;;;;;;;20.16;60.61;99468.06;4389284;32;31726;-82
2022/09/10 05:43:15;;;;;;;;;;;;;;;20.29;60.24;99458.94;4397388;32;34915;-81
2022/09/10 05:45:43;;;;;;;;;;;;;;;20.50;59.45;99466.91;4406203;32;34463;-81
2022/09/10 05:48:11;;;;;;;;;;;;;;;20.54;59.31;99479.91;4386904;32;32879;-81
2022/09/10 05:50:39;;;;;;;;;;;;;;;20.79;58.74;99478.53;4388186;32;33277;-80
2022/09/10 05:53:08;;;;;;;;;;;;;;;20.53;60.40;99474.69;4396209;32;34550;-81
2022/09/10 05:55:36;;;;;;;;;;;;;;;20.47;60.17;99473.44;4396403;32;33454;-84
2022/09/10 05:58:05;;;;;;;;;;;;;;;20.53;59.67;99477.38;4396237;32;32995;-82
2022/09/10 06:00:35;;;;;;;;;;;;;;;20.95;58.87;99472.63;4399284;32;34124;-82
2022/09/10 06:03:04;;;;;;;;;;;;;;;20.71;59.45;99476.56;4395986;32;34206;-82
2022/09/10 06:09:23;;;;;;;;;;;;;;;20.91;59.03;99472.06;4398409;32;35959;-84
2022/09/10 06:11:52;;;;;;;;;;;;;;;20.92;58.61;99470.22;4397921;32;33037;-84
2022/09/10 06:14:19;;;;;;;;;;;;;;;20.99;58.43;99463.31;4387584;32;33091;-84
2022/09/10 06:16:48;;;;;;;;;;;;;;;21.12;58.42;99469.22;4378974;32;33446;-84
2022/09/10 06:19:16;;;;;;;;;;;;;;;21.09;58.06;99461.47;4408017;32;32951;-83
2022/09/10 06:21:45;;;;;;;;;;;;;;;20.80;59.70;99468.69;4403029;32;32235;-84
2022/09/10 06:24:13;;;;;;;;;;;;;;;20.71;59.24;99465.84;4394998;32;33994;-83
2022/09/10 06:26:41;;;;;;;;;;;;;;;20.89;58.72;99463.31;4363992;32;35316;-83
2022/09/10 06:29:10;;;;;;;;;;;;;;;21.05;58.84;99461.88;4379049;32;34868;-83
2022/09/10 06:31:38;;;;;;;;;;;;;;;20.94;59.30;99466.41;4354833;32;32258;-83
2022/09/10 06:34:06;;;;;;;;;;;;;;;20.87;59.44;99457.22;4366468;32;33895;-83
2022/09/10 06:36:34;;;;;;;;;;;;;;;20.90;59.78;99469.53;4366387;32;34719;-83
2022/09/10 06:39:02;;;;;;;;;;;;;;;21.04;58.92;99466.41;4375852;32;33997;-83
2022/09/10 06:41:30;;;;;;;;;;;;;;;20.97;58.82;99470.62;4378252;32;32454;-84
2022/09/10 06:43:59;;;;;;;;;;;;;;;20.90;59.89;99464.16;4392156;32;32858;-83
2022/09/10 06:46:26;;;;;;;;;;;;;;;21.02;59.85;99468.37;4374566;32;33206;-83
2022/09/10 06:49:14;;;;;;;;;;;;;;;21.13;58.07;99465.56;4368176;32;33521;-84
2022/09/10 06:51:43;;;;;;;;;;;;;;;20.73;59.94;99467.53;4378159;32;32371;-84
2022/09/10 06:54:11;;;;;;;;;;;;;;;21.07;58.21;99470.62;4378959;32;33302;-84
2022/09/10 06:56:41;;;;;;;;;;;;;;;21.14;58.09;99475.31;4387678;32;34936;-84
2022/09/10 06:59:09;;;;;;;;;;;;;;;20.77;59.74;99487.72;4378719;32;32619;-84
2022/09/10 07:01:37;;;;;;;;;;;;;;;21.11;58.88;99483.63;4370391;32;32115;-84
2022/09/10 07:04:05;;;;;;;;;;;;;;;21.12;58.80;99485.31;4365979;32;33914;-84
2022/09/10 07:06:34;;;;;;;;;;;;;;;21.03;60.10;99485.31;4366648;32;33534;-84
2022/09/10 07:09:03;;;;;;;;;;;;;;;21.06;60.29;99491.25;4353627;32;33331;-84
2022/09/10 07:11:31;;;;;;;;;;;;;;;21.05;60.42;99494.94;4352594;32;32392;-84
2022/09/10 07:14:00;;;;;;;;;;;;;;;21.01;61.19;99498.06;4380032;32;33644;-84
2022/09/10 07:16:28;;;;;;;;;;;;;;;20.95;61.36;99510.22;4367853;32;34260;-84
2022/09/10 07:18:57;;;;;;;;;;;;;;;20.82;61.93;99515.81;4377202;32;34115;-84
2022/09/10 07:21:26;;;;;;;;;;;;;;;21.06;61.57;99522.63;4354252;32;31999;-84
2022/09/10 07:23:57;;;;;;;;;;;;;;;21.04;61.87;99509.38;4368922;32;34321;-84
2022/09/10 07:26:26;;;;;;;;;;;;;;;20.64;64.13;99512.97;4366475;32;34474;-84
2022/09/10 07:28:54;;;;;;;;;;;;;;;20.72;64.20;99509.59;4362567;32;33083;-84
2022/09/10 07:31:22;;;;;;;;;;;;;;;20.82;63.92;99517.66;4373263;32;32697;-84
2022/09/10 07:33:51;;;;;;;;;;;;;;;20.68;64.51;99509.03;4400145;32;33905;-84
2022/09/10 07:36:19;;;;;;;;;;;;;;;20.78;64.13;99511.72;4383884;32;33383;-84
2022/09/10 07:38:49;;;;;;;;;;;;;;;20.76;64.42;99518.22;4386488;32;33238;-83
2022/09/10 07:41:20;;;;;;;;;;;;;;;20.97;63.78;99521.63;4410427;32;32571;-84
2022/09/10 07:43:51;;;;;;;;;;;;;;;20.75;65.36;99530.81;4386960;32;32955;-84
2022/09/10 07:46:19;;;;;;;;;;;;;;;20.83;64.37;99533.63;4385167;32;33706;-83
2022/09/10 07:48:51;;;;;;;;;;;;;;;20.89;63.61;99526.88;4396580;32;33153;-84
2022/09/10 07:51:20;;;;;;;;;;;;;;;20.95;63.09;99529.00;4384888;32;32183;-86
2022/09/10 07:53:54;;;;;;;;;;;;;;;21.01;63.25;99528.41;4381738;32;32933;-86
2022/09/10 07:56:24;;;;;;;;;;;;;;;21.00;63.02;99534.78;4363777;32;33319;-83
2022/09/10 07:58:52;;;;;;;;;;;;;;;21.07;63.40;99535.91;4398800;32;33396;-84
2022/09/10 08:01:20;;;;;;;;;;;;;;;21.08;63.19;99528.69;4383063;32;32725;-86
2022/09/10 08:03:50;;;;;;;;;;;;;;;21.42;61.04;99531.84;4397346;32;33890;-85
2022/09/10 08:06:18;;;;;;;;;;;;;;;21.34;61.78;99529.88;4384795;32;34161;-84
2022/09/10 08:08:47;;;;;;;;;;;;;;;21.71;60.97;99529.13;4395755;32;33000;-84
2022/09/10 08:11:16;;;;;;;;;;;;;;;21.89;60.53;99537.28;4388729;32;32400;-84
2022/09/10 08:13:45;;;;;;;;;;;;;;;21.72;61.95;99537.03;4399131;32;34384;-83
2022/09/10 08:16:14;;;;;;;;;;;;;;;21.89;61.96;99537.28;4401310;32;33881;-85
2022/09/10 08:18:43;;;;;;;;;;;;;;;21.80;62.64;99536.31;4377563;32;33905;-84
2022/09/10 08:21:12;;;;;;;;;;;;;;;22.02;60.86;99532.41;4386910;32;32354;-85
2022/09/10 08:23:40;;;;;;;;;;;;;;;22.07;61.31;99531.97;4404735;32;33128;-85
2022/09/10 08:26:07;;;;;;;;;;;;;;;22.29;60.17;99536.19;4400103;32;34023;-85
2022/09/10 08:28:35;;;;;;;;;;;;;;;22.21;60.86;99535.06;4389479;32;34339;-85
2022/09/10 08:31:06;;;;;;;;;;;;;;;22.38;59.34;99528.06;4372812;32;32475;-85
2022/09/10 08:33:40;;;;;;;;;;;;;;;22.43;58.69;99524.94;4385203;32;32945;-85
2022/09/10 08:36:09;;;;;;;;;;;;;;;22.36;58.98;99534.56;4383510;32;32801;-85
2022/09/10 08:38:38;;;;;;;;;;;;;;;22.64;56.17;99530.88;4368977;32;33024;-85
2022/09/10 08:41:20;;;;;;;;;;;;;;;22.33;57.97;99540.28;4385261;32;33046;-85
2022/09/10 08:43:51;;;;;;;;;;;;;;;22.64;56.16;99533.56;4397584;32;32742;-88
2022/09/10 08:46:23;;;;;;;;;;;;;;;22.37;54.94;99541.69;4380420;32;34148;-88
2022/09/10 08:49:03;;;;;;;;;;;;;;;22.62;54.74;99530.19;4390869;32;33038;-88
2022/09/10 08:51:33;;;;;;;;;;;;;;;22.18;56.79;99537.22;4401421;32;33953;-88
2022/09/10 08:54:04;;;;;;;;;;;;;;;22.12;55.03;99544.00;4402882;32;33898;-88
2022/09/10 08:56:31;;;;;;;;;;;;;;;22.29;55.75;99544.25;4393913;32;33338;-88
2022/09/10 08:59:01;;;;;;;;;;;;;;;22.12;56.12;99527.87;4402535;32;32546;-88
2022/09/10 09:01:50;;;;;;;;;;;;;;;22.37;52.98;99536.28;4394181;32;31733;-88
2022/09/10 09:04:33;;;;;;;;;;;;;;;22.07;54.89;99538.19;4394185;32;33082;-89
2022/09/10 09:07:03;;;;;;;;;;;;;;;22.14;53.99;99551.97;4400491;32;32744;-88
2022/09/10 09:09:30;;;;;;;;;;;;;;;21.87;56.31;99547.31;4392615;32;33129;-88
2022/09/10 09:12:02;;;;;;;;;;;;;;;22.00;53.89;99545.16;4372128;32;32619;-88
2022/09/10 09:14:50;;;;;;;;;;;;;;;22.12;54.05;99545.84;4420101;32;32590;-88
2022/09/10 09:17:21;;;;;;;;;;;;;;;22.49;55.03;99545.84;4397072;32;35037;-89
2022/09/10 09:19:54;;;;;;;;;;;;;;;22.67;54.41;99541.34;4406530;32;34369;-88
2022/09/10 09:22:39;;;;;;;;;;;;;;;22.60;53.40;99542.97;4395292;32;32725;-89
2022/09/10 09:25:22;;;;;;;;;;;;;;;22.69;53.79;99543.91;4401879;32;33405;-88
2022/09/10 09:27:51;;;;;;;;;;;;;;;22.49;53.87;99540.47;4388038;32;33301;-89
2022/09/10 09:30:30;;;;;;;;;;;;;;;22.82;52.02;99539.00;4418440;32;33612;-88
2022/09/10 09:33:02;;;;;;;;;;;;;;;23.06;51.61;99537.59;4387621;32;31805;-88
2022/09/10 09:35:31;;;;;;;;;;;;;;;23.23;50.64;99534.91;4398500;32;34224;-89
2022/09/10 09:38:02;;;;;;;;;;;;;;;23.39;51.17;99530.66;4375016;32;33546;-89
2022/09/10 09:40:43;;;;;;;;;;;;;;;23.47;51.05;99531.56;4416168;32;33330;-88
2022/09/10 09:43:11;;;;;;;;;;;;;;;23.79;49.58;99532.88;4386938;32;32422;-84
2022/09/10 09:45:42;;;;;;;;;;;;;;;23.97;50.22;99532.78;4384920;32;34243;-84
2022/09/10 09:48:11;;;;;;;;;;;;;;;24.20;49.06;99523.13;4394501;32;34372;-84
2022/09/10 09:50:44;;;;;;;;;;;;;;;24.50;47.29;99518.28;4388711;32;34045;-84
2022/09/10 09:53:24;;;;;;;;;;;;;;;24.80;45.23;99514.13;4378979;32;32958;-84
2022/09/10 09:55:53;;;;;;;;;;;;;;;25.01;47.57;99527.16;4390822;32;32768;-84
2022/09/10 09:58:20;;;;;;;;;;;;;;;25.32;44.42;99510.34;4383589;32;34957;-84
2022/09/10 10:00:48;;;;;;;;;;;;;;;25.62;44.02;99509.66;4386398;32;34272;-85
2022/09/10 10:03:25;;;;;;;;;;;;;;;25.92;42.68;99512.66;4397027;32;33111;-85
2022/09/10 10:06:04;;;;;;;;;;;;;;;26.32;42.44;99500.03;4372681;32;33962;-85
2022/09/10 10:08:33;;;;;;;;;;;;;;;26.07;40.44;99497.44;4382810;32;33783;-84
2022/09/10 10:11:00;;;;;;;;;;;;;;;26.25;41.06;99495.34;4397009;32;32752;-85
2022/09/10 10:13:38;;;;;;;;;;;;;;;26.12;41.05;99494.19;4394173;32;33426;-84
2022/09/10 10:16:13;;;;;;;;;;;;;;;25.95;42.11;99498.81;4381462;32;32840;-85
2022/09/10 10:18:41;;;;;;;;;;;;;;;25.87;41.87;99491.53;4395745;32;34373;-84
2022/09/10 10:21:09;;;;;;;;;;;;;;;26.23;41.67;99493.81;4376658;32;33451;-85
2022/09/10 10:23:36;;;;;;;;;;;;;;;26.13;42.71;99491.31;4382055;32;32041;-84
2022/09/10 10:26:22;;;;;;;;;;;;;;;26.08;40.64;99482.03;4398588;32;34925;-84
2022/09/10 10:28:51;;;;;;;;;;;;;;;26.16;39.93;99482.84;4399034;32;33985;-85
2022/09/10 10:31:18;;;;;;;;;;;;;;;26.36;41.37;99485.13;4384641;32;34833;-85
2022/09/10 10:33:59;;;;;;;;;;;;;;;26.42;40.09;99484.44;4378443;32;32378;-84
2022/09/10 10:36:35;;;;;;;;;;;;;;;26.28;40.94;99480.59;4384226;32;32847;-85
2022/09/10 10:39:02;;;;;;;;;;;;;;;26.62;41.42;99472.16;4393883;32;33915;-85
2022/09/10 10:41:32;;;;;;;;;;;;;;;27.04;39.41;99468.16;4387134;32;34567;-85
2022/09/10 10:44:15;;;;;;;;;;;;;;;27.25;38.94;99471.09;4396872;32;33560;-85
2022/09/10 10:46:52;;;;;;;;;;;;;;;27.05;37.93;99469.84;4394516;32;33400;-84
2022/09/10 10:49:24;;;;;;;;;;;;;;;27.13;39.78;99469.81;4407451;32;34168;-84
2022/09/10 10:51:59;;;;;;;;;;;;;;;27.35;37.32;99475.37;4397460;32;33896;-85
2022/09/10 10:54:45;;;;;;;;;;;;;;;27.38;37.73;99475.87;4399576;32;32839;-85
2022/09/10 10:57:15;;;;;;;;;;;;;;;27.16;36.62;99474.87;4397995;32;34260;-85
2022/09/10 10:59:46;;;;;;;;;;;;;;;27.57;37.08;99474.50;4400580;32;34689;-85
2022/09/10 11:02:14;;;;;;;;;;;;;;;27.57;36.66;99469.91;4370640;32;34561;-85
2022/09/10 11:04:49;;;;;;;;;;;;;;;27.61;35.36;99469.56;4388757;32;32150;-85
2022/09/10 11:07:31;;;;;;;;;;;;;;;27.90;35.59;99458.75;4379734;32;33906;-85
2022/09/10 11:10:00;;;;;;;;;;;;;;;28.02;34.88;99461.88;4397586;32;34157;-85
2022/09/10 11:12:32;;;;;;;;;;;;;;;27.76;36.56;99467.72;4388067;32;33390;-85
2022/09/10 11:15:18;;;;;;;;;;;;;;;28.16;35.20;99474.59;4398580;32;32903;-85
2022/09/10 11:17:54;;;;;;;;;;;;;;;28.27;34.27;99471.38;4381027;32;33200;-85
2022/09/10 11:20:32;;;;;;;;;;;;;;;28.44;33.85;99471.19;4400769;32;34214;-85
2022/09/10 11:22:59;;;;;;;;;;;;;;;28.02;34.02;99468.13;4384493;32;34203;-85
2022/09/10 11:25:28;;;;;;;;;;;;;;;28.21;33.63;99471.31;4397182;32;32704;-85
2022/09/10 11:27:58;;;;;;;;;;;;;;;27.63;35.90;99472.91;4374076;32;32933;-85
2022/09/10 11:30:25;;;;;;;;;;;;;;;27.65;34.80;99479.84;4387412;32;34225;-85
2022/09/10 11:33:00;;;;;;;;;;;;;;;27.29;35.88;99477.81;4384762;32;33905;-85
2022/09/10 11:35:28;;;;;;;;;;;;;;;26.86;38.64;99475.72;4385927;32;32505;-85
2022/09/10 11:38:00;;;;;;;;;;;;;;;27.27;35.69;99458.19;4399024;32;34877;-85
2022/09/10 11:40:27;;;;;;;;;;;;;;;27.19;35.47;99463.66;4400943;32;34052;-85
2022/09/10 11:42:55;;;;;;;;;;;;;;;26.60;37.70;99466.09;4385005;32;33009;-85
2022/09/10 11:45:42;;;;;;;;;;;;;;;26.77;37.10;99466.81;4385394;32;32605;-84
2022/09/10 11:48:10;;;;;;;;;;;;;;;27.38;35.91;99456.03;4387016;32;34155;-85
2022/09/10 11:50:40;;;;;;;;;;;;;;;27.42;34.27;99460.91;4399618;32;33880;-85
2022/09/10 11:53:10;;;;;;;;;;;;;;;27.54;35.26;99464.88;4385324;32;32742;-85
2022/09/10 11:55:58;;;;;;;;;;;;;;;28.03;34.36;99448.09;4385485;32;33094;-85
2022/09/10 11:58:37;;;;;;;;;;;;;;;28.10;34.87;99453.59;4384407;32;33909;-85
2022/09/10 12:01:24;;;;;;;;;;;;;;;28.33;34.36;99459.75;4371825;32;34123;-85
2022/09/10 12:03:56;;;;;;;;;;;;;;;28.36;33.46;99446.88;4407193;32;33085;-85
2022/09/10 12:06:31;;;;;;;;;;;;;;;28.59;32.52;99463.88;4367024;32;32580;-85
2022/09/10 12:08:58;;;;;;;;;;;;;;;28.11;32.35;99460.75;4387757;32;34608;-85
2022/09/10 12:11:32;;;;;;;;;;;;;;;28.26;33.23;99464.28;4385321;32;33265;-86
2022/09/10 12:14:04;;;;;;;;;;;;;;;28.27;33.84;99455.09;4396435;32;33833;-84
2022/09/10 12:16:33;;;;;;;;;;;;;;;28.05;33.18;99458.75;4400473;32;32164;-84
2022/09/10 12:19:03;;;;;;;;;;;;;;;28.52;32.46;99460.22;4396980;32;34324;-84
2022/09/10 12:21:33;;;;;;;;;;;;;;;28.42;35.14;99451.53;4398488;32;33500;-85
2022/09/10 12:24:01;;;;;;;;;;;;;;;28.74;32.48;99450.25;4386055;32;33264;-84
2022/09/10 12:26:28;;;;;;;;;;;;;;;28.26;33.07;99453.41;4385055;32;33826;-84
2022/09/10 12:28:58;;;;;;;;;;;;;;;28.28;32.80;99451.34;4398783;32;33687;-84
2022/09/10 12:31:26;;;;;;;;;;;;;;;28.36;32.39;99453.16;4396810;32;33106;-84
2022/09/10 12:33:56;;;;;;;;;;;;;;;28.61;32.75;99456.34;4384887;32;34360;-84
2022/09/10 12:36:26;;;;;;;;;;;;;;;28.50;31.23;99448.72;4397554;32;32610;-84
2022/09/10 12:39:15;;;;;;;;;;;;;;;28.13;32.47;99447.81;4387015;32;35163;-84
2022/09/10 12:41:42;;;;;;;;;;;;;;;28.03;33.07;99449.97;4399245;32;33422;-84
2022/09/10 12:44:26;;;;;;;;;;;;;;;28.28;32.38;99445.91;4387762;32;33888;-84
2022/09/10 12:47:17;;;;;;;;;;;;;;;27.61;34.35;99447.88;4380407;32;34139;-84
2022/09/10 12:49:45;;;;;;;;;;;;;;;27.70;33.25;99444.87;4399900;32;32951;-84
2022/09/10 12:52:14;;;;;;;;;;;;;;;27.30;33.98;99440.72;4396612;32;34267;-84
2022/09/10 12:54:51;;;;;;;;;;;;;;;27.31;35.44;99443.22;4379967;32;34256;-85
2022/09/10 12:57:25;;;;;;;;;;;;;;;27.38;35.03;99437.91;4397853;32;34051;-84
2022/09/10 13:00:11;;;;;;;;;;;;;;;27.71;34.70;99449.31;4385164;32;32583;-84
2022/09/10 13:02:50;;;;;;;;;;;;;;;28.04;32.33;99438.91;4398048;32;34747;-84
2022/09/10 13:05:20;;;;;;;;;;;;;;;27.73;35.40;99436.41;4398382;32;33934;-85
2022/09/10 13:07:54;;;;;;;;;;;;;;;27.66;34.85;99432.72;4397428;32;33414;-84
2022/09/10 13:10:23;;;;;;;;;;;;;;;27.95;32.81;99436.50;4377823;32;34584;-84